sensor_id;sensor_type;location;lat;lon;timestamp;P1;durP1;ratioP1;P2;durP2;ratioP2
22705;SDS011;11520;51.198;4.468;2022-09-11T00:02:20;30.48;;;19.40;;
22705;SDS011;11520;51.198;4.468;2022-09-11T00:07:32;31.15;;;17.92;;
22705;SDS011;11520;51.198;4.468;2022-09-11T00:10:02;25.20;;;17.83;;
22705;SDS011;11520;51.198;4.468;2022-09-11T00:12:30;26.95;;;18.67;;
22705;SDS011;11520;51.198;4.468;2022-09-11T00:14:55;26.40;;;18.33;;
22705;SDS011;11520;51.198;4.468;2022-09-11T00:17:21;26.55;;;17.88;;
22705;SDS011;11520;51.198;4.468;2022-09-11T00:19:48;24.10;;;17.58;;
22705;SDS011;11520;51.198;4.468;2022-09-11T00:22:13;24.33;;;17.98;;
22705;SDS011;11520;51.198;4.468;2022-09-11T00:24:40;32.47;;;19.80;;
22705;SDS011;11520;51.198;4.468;2022-09-11T00:27:05;26.60;;;18.85;;
22705;SDS011;11520;51.198;4.468;2022-09-11T00:29:33;34.88;;;20.67;;
22705;SDS011;11520;51.198;4.468;2022-09-11T00:31:58;33.85;;;20.88;;
22705;SDS011;11520;51.198;4.468;2022-09-11T00:34:25;33.55;;;20.98;;
22705;SDS011;11520;51.198;4.468;2022-09-11T00:36:50;30.63;;;20.02;;
22705;SDS011;11520;51.198;4.468;2022-09-11T00:39:16;42.08;;;21.48;;
22705;SDS011;11520;51.198;4.468;2022-09-11T00:41:43;34.65;;;21.63;;
22705;SDS011;11520;51.198;4.468;2022-09-11T00:46:46;30.77;;;21.13;;
22705;SDS011;11520;51.198;4.468;2022-09-11T00:52:13;29.35;;;20.73;;
22705;SDS011;11520;51.198;4.468;2022-09-11T00:57:26;24.58;;;18.60;;
22705;SDS011;11520;51.198;4.468;2022-09-11T00:59:57;39.65;;;21.58;;
22705;SDS011;11520;51.198;4.468;2022-09-11T01:02:25;33.08;;;22.95;;
22705;SDS011;11520;51.198;4.468;2022-09-11T01:04:53;32.83;;;22.02;;
22705;SDS011;11520;51.198;4.468;2022-09-11T01:07:19;34.72;;;23.58;;
22705;SDS011;11520;51.198;4.468;2022-09-11T01:09:47;32.38;;;21.40;;
22705;SDS011;11520;51.198;4.468;2022-09-11T01:15:07;42.30;;;22.08;;
22705;SDS011;11520;51.198;4.468;2022-09-11T01:18:31;33.15;;;19.45;;
22705;SDS011;11520;51.198;4.468;2022-09-11T01:21:18;30.52;;;19.60;;
22705;SDS011;11520;51.198;4.468;2022-09-11T01:29:19;31.25;;;20.38;;
22705;SDS011;11520;51.198;4.468;2022-09-11T01:32:03;32.80;;;20.90;;
22705;SDS011;11520;51.198;4.468;2022-09-11T01:34:46;33.17;;;20.92;;
22705;SDS011;11520;51.198;4.468;2022-09-11T01:37:21;27.83;;;20.45;;
22705;SDS011;11520;51.198;4.468;2022-09-11T01:40:00;28.40;;;19.70;;
22705;SDS011;11520;51.198;4.468;2022-09-11T01:42:35;29.92;;;19.50;;
22705;SDS011;11520;51.198;4.468;2022-09-11T01:45:07;25.23;;;18.70;;
22705;SDS011;11520;51.198;4.468;2022-09-11T01:47:44;31.70;;;21.23;;
22705;SDS011;11520;51.198;4.468;2022-09-11T01:50:14;29.92;;;19.80;;
22705;SDS011;11520;51.198;4.468;2022-09-11T01:52:59;28.17;;;20.27;;
22705;SDS011;11520;51.198;4.468;2022-09-11T01:55:30;28.13;;;20.02;;
22705;SDS011;11520;51.198;4.468;2022-09-11T01:58:25;35.80;;;20.75;;
22705;SDS011;11520;51.198;4.468;2022-09-11T02:01:18;31.05;;;21.75;;
22705;SDS011;11520;51.198;4.468;2022-09-11T02:03:53;31.23;;;20.52;;
22705;SDS011;11520;51.198;4.468;2022-09-11T02:07:17;31.88;;;22.13;;
22705;SDS011;11520;51.198;4.468;2022-09-11T02:09:34;29.95;;;20.63;;
22705;SDS011;11520;51.198;4.468;2022-09-11T02:12:08;28.85;;;19.85;;
22705;SDS011;11520;51.198;4.468;2022-09-11T02:14:43;29.08;;;20.13;;
22705;SDS011;11520;51.198;4.468;2022-09-11T02:17:14;30.73;;;19.52;;
22705;SDS011;11520;51.198;4.468;2022-09-11T02:19:48;28.33;;;19.63;;
22705;SDS011;11520;51.198;4.468;2022-09-11T02:22:15;26.00;;;19.60;;
22705;SDS011;11520;51.198;4.468;2022-09-11T02:24:40;22.63;;;18.02;;
22705;SDS011;11520;51.198;4.468;2022-09-11T02:27:07;28.08;;;18.92;;
22705;SDS011;11520;51.198;4.468;2022-09-11T02:29:36;30.70;;;19.98;;
22705;SDS011;11520;51.198;4.468;2022-09-11T02:32:03;25.67;;;18.58;;
22705;SDS011;11520;51.198;4.468;2022-09-11T02:34:31;28.52;;;19.13;;
22705;SDS011;11520;51.198;4.468;2022-09-11T02:57:38;26.65;;;18.15;;
22705;SDS011;11520;51.198;4.468;2022-09-11T03:00:15;23.27;;;17.02;;
22705;SDS011;11520;51.198;4.468;2022-09-11T03:02:41;22.10;;;16.25;;
22705;SDS011;11520;51.198;4.468;2022-09-11T03:05:08;21.92;;;16.00;;
22705;SDS011;11520;51.198;4.468;2022-09-11T03:07:35;29.15;;;18.45;;
22705;SDS011;11520;51.198;4.468;2022-09-11T03:10:01;23.13;;;15.32;;
22705;SDS011;11520;51.198;4.468;2022-09-11T03:12:27;35.05;;;20.35;;
22705;SDS011;11520;51.198;4.468;2022-09-11T03:14:52;25.77;;;16.45;;
22705;SDS011;11520;51.198;4.468;2022-09-11T03:17:19;29.85;;;18.98;;
22705;SDS011;11520;51.198;4.468;2022-09-11T03:19:45;26.67;;;17.85;;
22705;SDS011;11520;51.198;4.468;2022-09-11T03:22:11;22.83;;;16.17;;
22705;SDS011;11520;51.198;4.468;2022-09-11T03:24:38;25.73;;;16.45;;
22705;SDS011;11520;51.198;4.468;2022-09-11T03:27:04;26.45;;;16.80;;
22705;SDS011;11520;51.198;4.468;2022-09-11T03:29:31;27.63;;;17.98;;
22705;SDS011;11520;51.198;4.468;2022-09-11T03:31:57;24.27;;;16.67;;
22705;SDS011;11520;51.198;4.468;2022-09-11T03:34:23;29.60;;;18.45;;
22705;SDS011;11520;51.198;4.468;2022-09-11T03:36:49;27.92;;;18.88;;
22705;SDS011;11520;51.198;4.468;2022-09-11T03:39:15;26.40;;;16.98;;
22705;SDS011;11520;51.198;4.468;2022-09-11T03:41:41;27.73;;;17.70;;
22705;SDS011;11520;51.198;4.468;2022-09-11T03:44:09;26.40;;;17.10;;
22705;SDS011;11520;51.198;4.468;2022-09-11T03:46:37;35.15;;;19.08;;
22705;SDS011;11520;51.198;4.468;2022-09-11T03:49:03;25.55;;;17.52;;
22705;SDS011;11520;51.198;4.468;2022-09-11T03:51:30;34.20;;;19.98;;
22705;SDS011;11520;51.198;4.468;2022-09-11T03:53:59;24.65;;;16.80;;
22705;SDS011;11520;51.198;4.468;2022-09-11T03:56:26;23.83;;;14.95;;
22705;SDS011;11520;51.198;4.468;2022-09-11T03:58:58;21.38;;;16.17;;
22705;SDS011;11520;51.198;4.468;2022-09-11T04:01:25;23.38;;;15.65;;
22705;SDS011;11520;51.198;4.468;2022-09-11T04:03:51;26.15;;;17.42;;
22705;SDS011;11520;51.198;4.468;2022-09-11T04:06:17;25.05;;;17.20;;
22705;SDS011;11520;51.198;4.468;2022-09-11T04:08:44;25.85;;;18.13;;
22705;SDS011;11520;51.198;4.468;2022-09-11T04:11:10;27.25;;;18.38;;
22705;SDS011;11520;51.198;4.468;2022-09-11T04:13:37;26.33;;;17.15;;
22705;SDS011;11520;51.198;4.468;2022-09-11T04:16:05;24.55;;;17.30;;
22705;SDS011;11520;51.198;4.468;2022-09-11T04:18:34;24.33;;;17.45;;
22705;SDS011;11520;51.198;4.468;2022-09-11T04:21:05;23.75;;;16.63;;
22705;SDS011;11520;51.198;4.468;2022-09-11T04:23:31;26.83;;;17.48;;
22705;SDS011;11520;51.198;4.468;2022-09-11T04:25:58;23.88;;;16.60;;
22705;SDS011;11520;51.198;4.468;2022-09-11T04:28:26;24.33;;;16.30;;
22705;SDS011;11520;51.198;4.468;2022-09-11T04:30:53;26.63;;;16.38;;
22705;SDS011;11520;51.198;4.468;2022-09-11T04:33:21;32.70;;;18.00;;
22705;SDS011;11520;51.198;4.468;2022-09-11T04:35:49;34.38;;;19.45;;
22705;SDS011;11520;51.198;4.468;2022-09-11T04:38:14;35.60;;;19.65;;
22705;SDS011;11520;51.198;4.468;2022-09-11T04:40:41;32.92;;;19.73;;
22705;SDS011;11520;51.198;4.468;2022-09-11T04:43:07;41.83;;;20.88;;
22705;SDS011;11520;51.198;4.468;2022-09-11T04:45:35;34.72;;;20.10;;
22705;SDS011;11520;51.198;4.468;2022-09-11T04:48:10;47.60;;;22.63;;
22705;SDS011;11520;51.198;4.468;2022-09-11T04:53:06;40.20;;;21.63;;
22705;SDS011;11520;51.198;4.468;2022-09-11T04:55:33;35.70;;;20.02;;
22705;SDS011;11520;51.198;4.468;2022-09-11T04:58:00;44.78;;;22.95;;
22705;SDS011;11520;51.198;4.468;2022-09-11T05:00:27;42.50;;;23.15;;
22705;SDS011;11520;51.198;4.468;2022-09-11T05:02:53;38.50;;;21.40;;
22705;SDS011;11520;51.198;4.468;2022-09-11T05:05:18;36.33;;;21.92;;
22705;SDS011;11520;51.198;4.468;2022-09-11T05:07:47;42.78;;;23.17;;
22705;SDS011;11520;51.198;4.468;2022-09-11T05:10:14;57.67;;;23.02;;
22705;SDS011;11520;51.198;4.468;2022-09-11T05:12:40;60.22;;;22.58;;
22705;SDS011;11520;51.198;4.468;2022-09-11T05:15:06;39.00;;;23.27;;
22705;SDS011;11520;51.198;4.468;2022-09-11T05:17:35;39.25;;;22.77;;
22705;SDS011;11520;51.198;4.468;2022-09-11T05:20:00;32.47;;;21.80;;
22705;SDS011;11520;51.198;4.468;2022-09-11T05:22:26;34.58;;;21.60;;
22705;SDS011;11520;51.198;4.468;2022-09-11T05:24:52;36.53;;;22.00;;
22705;SDS011;11520;51.198;4.468;2022-09-11T05:27:19;33.92;;;21.15;;
22705;SDS011;11520;51.198;4.468;2022-09-11T05:29:45;35.45;;;22.73;;
22705;SDS011;11520;51.198;4.468;2022-09-11T05:32:11;29.45;;;22.10;;
22705;SDS011;11520;51.198;4.468;2022-09-11T05:34:37;33.58;;;23.13;;
22705;SDS011;11520;51.198;4.468;2022-09-11T05:37:03;30.08;;;22.00;;
22705;SDS011;11520;51.198;4.468;2022-09-11T05:39:31;32.17;;;22.65;;
22705;SDS011;11520;51.198;4.468;2022-09-11T05:41:58;29.40;;;21.05;;
22705;SDS011;11520;51.198;4.468;2022-09-11T05:44:24;29.80;;;22.13;;
22705;SDS011;11520;51.198;4.468;2022-09-11T05:46:49;28.15;;;22.00;;
22705;SDS011;11520;51.198;4.468;2022-09-11T05:49:15;32.00;;;22.73;;
22705;SDS011;11520;51.198;4.468;2022-09-11T05:51:41;26.10;;;21.60;;
22705;SDS011;11520;51.198;4.468;2022-09-11T05:54:07;28.30;;;20.95;;
22705;SDS011;11520;51.198;4.468;2022-09-11T05:56:33;25.00;;;19.88;;
22705;SDS011;11520;51.198;4.468;2022-09-11T05:58:58;25.67;;;20.52;;
22705;SDS011;11520;51.198;4.468;2022-09-11T06:01:27;26.65;;;21.70;;
22705;SDS011;11520;51.198;4.468;2022-09-11T06:03:53;33.53;;;21.55;;
22705;SDS011;11520;51.198;4.468;2022-09-11T06:06:19;29.88;;;22.42;;
22705;SDS011;11520;51.198;4.468;2022-09-11T06:08:46;26.23;;;21.42;;
22705;SDS011;11520;51.198;4.468;2022-09-11T06:11:13;21.92;;;19.52;;
22705;SDS011;11520;51.198;4.468;2022-09-11T06:13:42;25.20;;;20.65;;
22705;SDS011;11520;51.198;4.468;2022-09-11T06:16:09;28.95;;;22.17;;
22705;SDS011;11520;51.198;4.468;2022-09-11T06:18:37;30.02;;;20.88;;
22705;SDS011;11520;51.198;4.468;2022-09-11T06:21:04;28.23;;;20.13;;
22705;SDS011;11520;51.198;4.468;2022-09-11T06:23:31;21.73;;;19.42;;
22705;SDS011;11520;51.198;4.468;2022-09-11T06:26:06;40.67;;;19.75;;
22705;SDS011;11520;51.198;4.468;2022-09-11T06:28:36;42.72;;;20.08;;
22705;SDS011;11520;51.198;4.468;2022-09-11T06:31:02;32.17;;;18.02;;
22705;SDS011;11520;51.198;4.468;2022-09-11T06:33:31;40.05;;;19.30;;
22705;SDS011;11520;51.198;4.468;2022-09-11T06:36:02;29.73;;;18.35;;
22705;SDS011;11520;51.198;4.468;2022-09-11T06:38:30;30.80;;;17.95;;
22705;SDS011;11520;51.198;4.468;2022-09-11T06:40:56;44.63;;;16.98;;
22705;SDS011;11520;51.198;4.468;2022-09-11T06:43:27;26.55;;;18.48;;
22705;SDS011;11520;51.198;4.468;2022-09-11T06:45:53;21.80;;;16.63;;
22705;SDS011;11520;51.198;4.468;2022-09-11T06:48:18;27.88;;;15.73;;
22705;SDS011;11520;51.198;4.468;2022-09-11T06:50:44;17.85;;;14.40;;
22705;SDS011;11520;51.198;4.468;2022-09-11T06:53:11;23.95;;;16.48;;
22705;SDS011;11520;51.198;4.468;2022-09-11T06:55:38;20.75;;;14.98;;
22705;SDS011;11520;51.198;4.468;2022-09-11T06:58:05;15.15;;;13.55;;
22705;SDS011;11520;51.198;4.468;2022-09-11T07:00:32;17.50;;;13.77;;
22705;SDS011;11520;51.198;4.468;2022-09-11T07:02:58;22.60;;;13.98;;
22705;SDS011;11520;51.198;4.468;2022-09-11T07:05:26;58.53;;;17.05;;
22705;SDS011;11520;51.198;4.468;2022-09-11T07:07:53;42.25;;;16.02;;
22705;SDS011;11520;51.198;4.468;2022-09-11T07:10:20;19.77;;;15.27;;
22705;SDS011;11520;51.198;4.468;2022-09-11T07:12:46;45.42;;;17.92;;
22705;SDS011;11520;51.198;4.468;2022-09-11T07:15:13;44.95;;;17.58;;
22705;SDS011;11520;51.198;4.468;2022-09-11T07:17:39;34.50;;;16.25;;
22705;SDS011;11520;51.198;4.468;2022-09-11T07:20:05;25.88;;;17.35;;
22705;SDS011;11520;51.198;4.468;2022-09-11T07:22:33;36.00;;;17.90;;
22705;SDS011;11520;51.198;4.468;2022-09-11T07:24:59;21.23;;;16.92;;
22705;SDS011;11520;51.198;4.468;2022-09-11T07:27:25;19.02;;;16.60;;
22705;SDS011;11520;51.198;4.468;2022-09-11T07:29:55;20.85;;;16.17;;
22705;SDS011;11520;51.198;4.468;2022-09-11T07:32:22;30.02;;;17.55;;
22705;SDS011;11520;51.198;4.468;2022-09-11T07:34:47;19.52;;;16.90;;
22705;SDS011;11520;51.198;4.468;2022-09-11T07:37:15;25.80;;;19.20;;
22705;SDS011;11520;51.198;4.468;2022-09-11T07:39:44;28.30;;;19.90;;
22705;SDS011;11520;51.198;4.468;2022-09-11T07:44:40;29.08;;;18.70;;
22705;SDS011;11520;51.198;4.468;2022-09-11T07:47:06;26.95;;;20.95;;
22705;SDS011;11520;51.198;4.468;2022-09-11T07:49:34;26.98;;;21.10;;
22705;SDS011;11520;51.198;4.468;2022-09-11T07:52:01;34.05;;;24.08;;
22705;SDS011;11520;51.198;4.468;2022-09-11T07:54:34;27.65;;;21.17;;
22705;SDS011;11520;51.198;4.468;2022-09-11T07:57:02;36.30;;;23.67;;
22705;SDS011;11520;51.198;4.468;2022-09-11T07:59:28;33.17;;;22.10;;
22705;SDS011;11520;51.198;4.468;2022-09-11T08:01:56;38.03;;;25.08;;
22705;SDS011;11520;51.198;4.468;2022-09-11T08:04:23;32.08;;;23.92;;
22705;SDS011;11520;51.198;4.468;2022-09-11T08:06:49;42.60;;;26.90;;
22705;SDS011;11520;51.198;4.468;2022-09-11T08:09:16;38.97;;;27.40;;
22705;SDS011;11520;51.198;4.468;2022-09-11T08:11:46;36.70;;;24.98;;
22705;SDS011;11520;51.198;4.468;2022-09-11T08:14:13;36.58;;;26.20;;
22705;SDS011;11520;51.198;4.468;2022-09-11T08:16:42;48.08;;;28.70;;
22705;SDS011;11520;51.198;4.468;2022-09-11T08:19:09;42.83;;;27.75;;
22705;SDS011;11520;51.198;4.468;2022-09-11T08:21:41;48.25;;;28.35;;
22705;SDS011;11520;51.198;4.468;2022-09-11T08:24:10;54.90;;;31.38;;
22705;SDS011;11520;51.198;4.468;2022-09-11T08:26:37;72.20;;;34.50;;
22705;SDS011;11520;51.198;4.468;2022-09-11T08:29:03;52.95;;;30.02;;
22705;SDS011;11520;51.198;4.468;2022-09-11T08:31:29;63.20;;;29.80;;
22705;SDS011;11520;51.198;4.468;2022-09-11T08:33:56;61.60;;;31.88;;
22705;SDS011;11520;51.198;4.468;2022-09-11T08:36:23;55.17;;;31.88;;
22705;SDS011;11520;51.198;4.468;2022-09-11T08:38:50;62.00;;;33.72;;
22705;SDS011;11520;51.198;4.468;2022-09-11T08:41:26;59.03;;;34.90;;
22705;SDS011;11520;51.198;4.468;2022-09-11T08:44:19;54.17;;;34.22;;
22705;SDS011;11520;51.198;4.468;2022-09-11T08:46:52;64.20;;;37.10;;
22705;SDS011;11520;51.198;4.468;2022-09-11T08:49:24;60.60;;;37.05;;
22705;SDS011;11520;51.198;4.468;2022-09-11T08:51:54;64.47;;;38.33;;
22705;SDS011;11520;51.198;4.468;2022-09-11T08:57:36;58.90;;;38.10;;
22705;SDS011;11520;51.198;4.468;2022-09-11T09:08:04;60.70;;;40.72;;
22705;SDS011;11520;51.198;4.468;2022-09-11T09:18:45;61.88;;;40.28;;
22705;SDS011;11520;51.198;4.468;2022-09-11T09:21:22;48.70;;;33.80;;
22705;SDS011;11520;51.198;4.468;2022-09-11T09:24:01;57.97;;;37.55;;
22705;SDS011;11520;51.198;4.468;2022-09-11T09:26:33;50.92;;;35.10;;
22705;SDS011;11520;51.198;4.468;2022-09-11T09:29:04;62.88;;;41.03;;
22705;SDS011;11520;51.198;4.468;2022-09-11T09:31:41;65.97;;;41.53;;
22705;SDS011;11520;51.198;4.468;2022-09-11T09:34:15;57.20;;;37.88;;
22705;SDS011;11520;51.198;4.468;2022-09-11T09:39:21;47.05;;;34.97;;
22705;SDS011;11520;51.198;4.468;2022-09-11T09:44:29;49.10;;;34.70;;
22705;SDS011;11520;51.198;4.468;2022-09-11T09:47:11;49.75;;;34.72;;
22705;SDS011;11520;51.198;4.468;2022-09-11T09:49:38;46.58;;;32.30;;
22705;SDS011;11520;51.198;4.468;2022-09-11T09:54:51;37.40;;;27.00;;
22705;SDS011;11520;51.198;4.468;2022-09-11T09:57:31;34.00;;;25.02;;
22705;SDS011;11520;51.198;4.468;2022-09-11T10:08:06;26.88;;;20.98;;
22705;SDS011;11520;51.198;4.468;2022-09-11T10:11:00;27.55;;;21.40;;
22705;SDS011;11520;51.198;4.468;2022-09-11T10:13:30;25.23;;;20.52;;
22705;SDS011;11520;51.198;4.468;2022-09-11T10:22:40;28.52;;;22.00;;
22705;SDS011;11520;51.198;4.468;2022-09-11T10:25:11;26.13;;;21.55;;
22705;SDS011;11520;51.198;4.468;2022-09-11T10:30:34;23.80;;;17.97;;
22705;SDS011;11520;51.198;4.468;2022-09-11T10:33:14;26.13;;;19.10;;
22705;SDS011;11520;51.198;4.468;2022-09-11T10:39:12;23.42;;;18.23;;
22705;SDS011;11520;51.198;4.468;2022-09-11T10:51:30;23.35;;;17.63;;
22705;SDS011;11520;51.198;4.468;2022-09-11T10:56:38;17.55;;;13.65;;
22705;SDS011;11520;51.198;4.468;2022-09-11T10:59:23;19.25;;;15.50;;
22705;SDS011;11520;51.198;4.468;2022-09-11T11:02:29;15.52;;;13.48;;
22705;SDS011;11520;51.198;4.468;2022-09-11T11:04:59;17.95;;;14.35;;
22705;SDS011;11520;51.198;4.468;2022-09-11T11:13:36;19.00;;;15.20;;
22705;SDS011;11520;51.198;4.468;2022-09-11T11:38:56;15.38;;;12.13;;
22705;SDS011;11520;51.198;4.468;2022-09-11T11:41:28;14.52;;;12.43;;
22705;SDS011;11520;51.198;4.468;2022-09-11T11:44:00;14.77;;;13.00;;
22705;SDS011;11520;51.198;4.468;2022-09-11T11:46:29;14.52;;;12.55;;
22705;SDS011;11520;51.198;4.468;2022-09-11T11:54:44;12.50;;;11.30;;
22705;SDS011;11520;51.198;4.468;2022-09-11T11:57:20;12.73;;;11.27;;
22705;SDS011;11520;51.198;4.468;2022-09-11T12:00:15;12.32;;;10.55;;
22705;SDS011;11520;51.198;4.468;2022-09-11T12:05:31;13.35;;;11.10;;
22705;SDS011;11520;51.198;4.468;2022-09-11T12:07:58;11.05;;;9.57;;
22705;SDS011;11520;51.198;4.468;2022-09-11T12:10:35;12.38;;;10.80;;
22705;SDS011;11520;51.198;4.468;2022-09-11T12:13:13;12.38;;;9.23;;
22705;SDS011;11520;51.198;4.468;2022-09-11T12:15:56;15.35;;;9.48;;
22705;SDS011;11520;51.198;4.468;2022-09-11T12:18:25;8.60;;;6.45;;
22705;SDS011;11520;51.198;4.468;2022-09-11T12:20:51;11.45;;;7.50;;
22705;SDS011;11520;51.198;4.468;2022-09-11T12:26:20;8.45;;;7.57;;
22705;SDS011;11520;51.198;4.468;2022-09-11T12:34:17;6.55;;;4.18;;
22705;SDS011;11520;51.198;4.468;2022-09-11T12:36:54;7.75;;;5.45;;
22705;SDS011;11520;51.198;4.468;2022-09-11T12:47:23;6.25;;;3.83;;
22705;SDS011;11520;51.198;4.468;2022-09-11T12:52:51;5.07;;;3.55;;
22705;SDS011;11520;51.198;4.468;2022-09-11T12:55:26;6.20;;;4.30;;
22705;SDS011;11520;51.198;4.468;2022-09-11T13:00:50;5.35;;;3.03;;
22705;SDS011;11520;51.198;4.468;2022-09-11T13:03:30;6.95;;;3.13;;
22705;SDS011;11520;51.198;4.468;2022-09-11T13:05:57;6.50;;;3.65;;
22705;SDS011;11520;51.198;4.468;2022-09-11T13:08:43;9.23;;;4.18;;
22705;SDS011;11520;51.198;4.468;2022-09-11T13:14:01;6.30;;;5.05;;
22705;SDS011;11520;51.198;4.468;2022-09-11T13:16:28;5.30;;;4.30;;
22705;SDS011;11520;51.198;4.468;2022-09-11T13:21:26;6.00;;;3.47;;
22705;SDS011;11520;51.198;4.468;2022-09-11T13:23:52;6.28;;;3.42;;
22705;SDS011;11520;51.198;4.468;2022-09-11T13:28:50;8.70;;;4.95;;
22705;SDS011;11520;51.198;4.468;2022-09-11T13:31:19;6.13;;;4.40;;
22705;SDS011;11520;51.198;4.468;2022-09-11T13:34:00;6.38;;;3.95;;
22705;SDS011;11520;51.198;4.468;2022-09-11T13:36:29;6.22;;;4.32;;
22705;SDS011;11520;51.198;4.468;2022-09-11T13:38:56;6.82;;;4.10;;
22705;SDS011;11520;51.198;4.468;2022-09-11T13:41:27;5.20;;;3.85;;
22705;SDS011;11520;51.198;4.468;2022-09-11T13:43:59;5.18;;;3.78;;
22705;SDS011;11520;51.198;4.468;2022-09-11T13:46:27;4.22;;;3.58;;
22705;SDS011;11520;51.198;4.468;2022-09-11T13:48:57;9.77;;;4.80;;
22705;SDS011;11520;51.198;4.468;2022-09-11T13:51:43;4.35;;;3.92;;
22705;SDS011;11520;51.198;4.468;2022-09-11T13:59:31;5.93;;;3.88;;
22705;SDS011;11520;51.198;4.468;2022-09-11T14:02:00;5.22;;;4.10;;
22705;SDS011;11520;51.198;4.468;2022-09-11T14:04:40;4.70;;;3.92;;
22705;SDS011;11520;51.198;4.468;2022-09-11T14:07:15;6.07;;;4.70;;
22705;SDS011;11520;51.198;4.468;2022-09-11T14:10:05;6.05;;;4.15;;
22705;SDS011;11520;51.198;4.468;2022-09-11T14:12:45;5.20;;;3.80;;
22705;SDS011;11520;51.198;4.468;2022-09-11T14:15:26;5.28;;;3.50;;
22705;SDS011;11520;51.198;4.468;2022-09-11T14:18:02;4.18;;;3.42;;
22705;SDS011;11520;51.198;4.468;2022-09-11T14:20:30;5.72;;;3.45;;
22705;SDS011;11520;51.198;4.468;2022-09-11T14:22:59;6.00;;;3.30;;
22705;SDS011;11520;51.198;4.468;2022-09-11T14:25:29;5.28;;;3.47;;
22705;SDS011;11520;51.198;4.468;2022-09-11T14:27:55;6.63;;;3.42;;
22705;SDS011;11520;51.198;4.468;2022-09-11T14:30:38;4.43;;;3.70;;
22705;SDS011;11520;51.198;4.468;2022-09-11T14:33:22;7.07;;;3.80;;
22705;SDS011;11520;51.198;4.468;2022-09-11T14:35:49;3.72;;;3.40;;
22705;SDS011;11520;51.198;4.468;2022-09-11T14:38:21;4.90;;;4.10;;
22705;SDS011;11520;51.198;4.468;2022-09-11T14:40:53;3.97;;;3.50;;
22705;SDS011;11520;51.198;4.468;2022-09-11T14:43:26;4.13;;;3.00;;
22705;SDS011;11520;51.198;4.468;2022-09-11T14:45:57;3.75;;;3.10;;
22705;SDS011;11520;51.198;4.468;2022-09-11T14:48:24;3.83;;;2.33;;
22705;SDS011;11520;51.198;4.468;2022-09-11T14:50:51;5.75;;;3.38;;
22705;SDS011;11520;51.198;4.468;2022-09-11T14:53:19;5.20;;;3.60;;
22705;SDS011;11520;51.198;4.468;2022-09-11T14:55:56;5.10;;;3.88;;
22705;SDS011;11520;51.198;4.468;2022-09-11T14:58:25;6.80;;;3.70;;
22705;SDS011;11520;51.198;4.468;2022-09-11T15:00:52;4.47;;;3.25;;
22705;SDS011;11520;51.198;4.468;2022-09-11T15:03:19;3.92;;;2.83;;
22705;SDS011;11520;51.198;4.468;2022-09-11T15:05:46;5.35;;;3.17;;
22705;SDS011;11520;51.198;4.468;2022-09-11T15:08:16;8.57;;;3.33;;
22705;SDS011;11520;51.198;4.468;2022-09-11T15:10:42;4.18;;;3.63;;
22705;SDS011;11520;51.198;4.468;2022-09-11T15:13:09;3.17;;;2.88;;
22705;SDS011;11520;51.198;4.468;2022-09-11T15:15:36;4.47;;;2.50;;
22705;SDS011;11520;51.198;4.468;2022-09-11T15:18:02;7.20;;;3.08;;
22705;SDS011;11520;51.198;4.468;2022-09-11T15:20:29;4.10;;;3.03;;
22705;SDS011;11520;51.198;4.468;2022-09-11T15:22:55;4.85;;;2.90;;
22705;SDS011;11520;51.198;4.468;2022-09-11T15:25:21;4.18;;;2.70;;
22705;SDS011;11520;51.198;4.468;2022-09-11T15:27:48;4.85;;;2.20;;
22705;SDS011;11520;51.198;4.468;2022-09-11T15:30:19;2.40;;;2.20;;
22705;SDS011;11520;51.198;4.468;2022-09-11T15:32:45;4.22;;;2.40;;
22705;SDS011;11520;51.198;4.468;2022-09-11T15:35:13;4.07;;;2.42;;
22705;SDS011;11520;51.198;4.468;2022-09-11T15:37:42;6.28;;;3.45;;
22705;SDS011;11520;51.198;4.468;2022-09-11T15:40:09;4.13;;;2.97;;
22705;SDS011;11520;51.198;4.468;2022-09-11T15:42:36;4.13;;;2.80;;
22705;SDS011;11520;51.198;4.468;2022-09-11T15:45:04;5.20;;;3.00;;
22705;SDS011;11520;51.198;4.468;2022-09-11T15:47:34;3.50;;;2.60;;
22705;SDS011;11520;51.198;4.468;2022-09-11T15:50:00;3.53;;;3.00;;
22705;SDS011;11520;51.198;4.468;2022-09-11T15:52:27;3.33;;;2.70;;
22705;SDS011;11520;51.198;4.468;2022-09-11T15:54:53;4.80;;;2.58;;
22705;SDS011;11520;51.198;4.468;2022-09-11T15:57:19;2.60;;;2.40;;
22705;SDS011;11520;51.198;4.468;2022-09-11T15:59:45;3.13;;;2.67;;
22705;SDS011;11520;51.198;4.468;2022-09-11T16:02:11;5.28;;;3.13;;
22705;SDS011;11520;51.198;4.468;2022-09-11T16:04:37;3.55;;;2.50;;
22705;SDS011;11520;51.198;4.468;2022-09-11T16:07:03;2.85;;;2.47;;
22705;SDS011;11520;51.198;4.468;2022-09-11T16:09:29;3.05;;;2.38;;
22705;SDS011;11520;51.198;4.468;2022-09-11T16:11:56;2.63;;;2.08;;
22705;SDS011;11520;51.198;4.468;2022-09-11T16:14:31;4.07;;;2.70;;
22705;SDS011;11520;51.198;4.468;2022-09-11T16:17:01;6.13;;;2.97;;
22705;SDS011;11520;51.198;4.468;2022-09-11T16:19:27;3.08;;;2.45;;
22705;SDS011;11520;51.198;4.468;2022-09-11T16:21:57;3.35;;;2.60;;
22705;SDS011;11520;51.198;4.468;2022-09-11T16:24:26;3.88;;;2.20;;
22705;SDS011;11520;51.198;4.468;2022-09-11T16:26:53;5.45;;;2.80;;
22705;SDS011;11520;51.198;4.468;2022-09-11T16:29:20;6.13;;;2.83;;
22705;SDS011;11520;51.198;4.468;2022-09-11T16:31:47;4.78;;;2.70;;
22705;SDS011;11520;51.198;4.468;2022-09-11T16:34:13;3.30;;;2.40;;
22705;SDS011;11520;51.198;4.468;2022-09-11T16:36:42;5.00;;;2.33;;
22705;SDS011;11520;51.198;4.468;2022-09-11T16:39:12;3.45;;;2.15;;
22705;SDS011;11520;51.198;4.468;2022-09-11T16:41:41;3.10;;;2.23;;
22705;SDS011;11520;51.198;4.468;2022-09-11T16:44:08;3.85;;;2.00;;
22705;SDS011;11520;51.198;4.468;2022-09-11T16:46:36;2.17;;;1.95;;
22705;SDS011;11520;51.198;4.468;2022-09-11T16:49:07;3.42;;;2.35;;
22705;SDS011;11520;51.198;4.468;2022-09-11T16:51:34;5.88;;;2.45;;
22705;SDS011;11520;51.198;4.468;2022-09-11T16:54:00;2.22;;;1.80;;
22705;SDS011;11520;51.198;4.468;2022-09-11T16:56:28;3.28;;;2.10;;
22705;SDS011;11520;51.198;4.468;2022-09-11T16:58:54;2.28;;;2.00;;
22705;SDS011;11520;51.198;4.468;2022-09-11T17:01:21;2.80;;;1.85;;
22705;SDS011;11520;51.198;4.468;2022-09-11T17:03:50;2.88;;;1.92;;
22705;SDS011;11520;51.198;4.468;2022-09-11T17:06:17;2.47;;;1.85;;
22705;SDS011;11520;51.198;4.468;2022-09-11T17:08:44;4.07;;;1.75;;
22705;SDS011;11520;51.198;4.468;2022-09-11T17:11:26;2.20;;;1.88;;
22705;SDS011;11520;51.198;4.468;2022-09-11T17:16:30;3.05;;;1.73;;
22705;SDS011;11520;51.198;4.468;2022-09-11T17:18:57;2.58;;;1.73;;
22705;SDS011;11520;51.198;4.468;2022-09-11T17:21:24;2.72;;;1.70;;
22705;SDS011;11520;51.198;4.468;2022-09-11T17:23:51;2.55;;;1.77;;
22705;SDS011;11520;51.198;4.468;2022-09-11T17:26:19;3.45;;;1.80;;
22705;SDS011;11520;51.198;4.468;2022-09-11T17:28:46;7.65;;;1.95;;
22705;SDS011;11520;51.198;4.468;2022-09-11T17:31:15;2.60;;;1.75;;
22705;SDS011;11520;51.198;4.468;2022-09-11T17:33:43;3.30;;;1.75;;
22705;SDS011;11520;51.198;4.468;2022-09-11T17:36:11;3.45;;;1.77;;
22705;SDS011;11520;51.198;4.468;2022-09-11T17:38:39;3.70;;;1.92;;
22705;SDS011;11520;51.198;4.468;2022-09-11T17:41:06;9.63;;;2.47;;
22705;SDS011;11520;51.198;4.468;2022-09-11T17:43:34;9.23;;;3.05;;
22705;SDS011;11520;51.198;4.468;2022-09-11T17:54:36;3.08;;;2.33;;
22705;SDS011;11520;51.198;4.468;2022-09-11T17:59:31;3.75;;;2.65;;